sensor_id;sensor_type;location;lat;lon;timestamp;P1;durP1;ratioP1;P2;durP2;ratioP2
10465;SDS011;5280;42.600;23.556;2022-07-12T00:01:00;2.97;;;2.30;;
10465;SDS011;5280;42.600;23.556;2022-07-12T00:03:28;2.97;;;2.13;;
10465;SDS011;5280;42.600;23.556;2022-07-12T00:05:55;2.30;;;1.83;;
10465;SDS011;5280;42.600;23.556;2022-07-12T00:08:24;5.33;;;2.23;;
10465;SDS011;5280;42.600;23.556;2022-07-12T00:10:52;2.00;;;1.90;;
10465;SDS011;5280;42.600;23.556;2022-07-12T00:13:19;1.80;;;1.70;;
10465;SDS011;5280;42.600;23.556;2022-07-12T00:15:46;2.43;;;1.90;;
10465;SDS011;5280;42.600;23.556;2022-07-12T00:18:14;2.10;;;1.90;;
10465;SDS011;5280;42.600;23.556;2022-07-12T00:20:41;1.77;;;1.67;;
10465;SDS011;5280;42.600;23.556;2022-07-12T00:23:28;2.30;;;2.10;;
10465;SDS011;5280;42.600;23.556;2022-07-12T00:25:55;4.50;;;1.87;;
10465;SDS011;5280;42.600;23.556;2022-07-12T00:28:22;1.73;;;1.60;;
10465;SDS011;5280;42.600;23.556;2022-07-12T00:30:49;1.97;;;1.80;;
10465;SDS011;5280;42.600;23.556;2022-07-12T00:33:16;4.17;;;1.90;;
10465;SDS011;5280;42.600;23.556;2022-07-12T00:35:44;2.03;;;1.90;;
10465;SDS011;5280;42.600;23.556;2022-07-12T00:38:11;2.60;;;2.10;;
10465;SDS011;5280;42.600;23.556;2022-07-12T00:40:40;1.93;;;1.60;;
10465;SDS011;5280;42.600;23.556;2022-07-12T00:43:07;2.83;;;1.70;;
10465;SDS011;5280;42.600;23.556;2022-07-12T00:45:34;1.90;;;1.70;;
10465;SDS011;5280;42.600;23.556;2022-07-12T00:48:02;2.03;;;1.83;;
10465;SDS011;5280;42.600;23.556;2022-07-12T00:50:30;2.47;;;2.10;;
10465;SDS011;5280;42.600;23.556;2022-07-12T00:52:57;2.13;;;1.73;;
10465;SDS011;5280;42.600;23.556;2022-07-12T00:55:24;1.93;;;1.83;;
10465;SDS011;5280;42.600;23.556;2022-07-12T00:57:53;2.63;;;1.87;;
10465;SDS011;5280;42.600;23.556;2022-07-12T01:00:21;1.60;;;1.50;;
10465;SDS011;5280;42.600;23.556;2022-07-12T01:02:50;1.73;;;1.63;;
10465;SDS011;5280;42.600;23.556;2022-07-12T01:05:18;1.80;;;1.70;;
10465;SDS011;5280;42.600;23.556;2022-07-12T01:07:46;1.60;;;1.50;;
10465;SDS011;5280;42.600;23.556;2022-07-12T01:10:13;1.77;;;1.60;;
10465;SDS011;5280;42.600;23.556;2022-07-12T01:12:40;2.00;;;1.40;;
10465;SDS011;5280;42.600;23.556;2022-07-12T01:15:10;1.73;;;1.60;;
10465;SDS011;5280;42.600;23.556;2022-07-12T01:17:37;1.60;;;1.50;;
10465;SDS011;5280;42.600;23.556;2022-07-12T01:20:06;1.50;;;1.40;;
10465;SDS011;5280;42.600;23.556;2022-07-12T01:22:34;3.40;;;1.60;;
10465;SDS011;5280;42.600;23.556;2022-07-12T01:25:05;1.27;;;1.27;;
10465;SDS011;5280;42.600;23.556;2022-07-12T01:27:33;1.50;;;1.50;;
10465;SDS011;5280;42.600;23.556;2022-07-12T01:30:01;2.43;;;1.50;;
10465;SDS011;5280;42.600;23.556;2022-07-12T01:32:29;1.77;;;1.67;;
10465;SDS011;5280;42.600;23.556;2022-07-12T01:34:57;2.37;;;1.70;;
10465;SDS011;5280;42.600;23.556;2022-07-12T01:37:25;1.70;;;1.60;;
10465;SDS011;5280;42.600;23.556;2022-07-12T01:39:56;1.60;;;1.50;;
10465;SDS011;5280;42.600;23.556;2022-07-12T01:42:26;2.53;;;1.87;;
10465;SDS011;5280;42.600;23.556;2022-07-12T01:44:55;1.70;;;1.60;;
10465;SDS011;5280;42.600;23.556;2022-07-12T01:47:25;1.30;;;1.30;;
10465;SDS011;5280;42.600;23.556;2022-07-12T01:49:59;1.50;;;1.40;;
10465;SDS011;5280;42.600;23.556;2022-07-12T01:52:27;2.57;;;1.40;;
10465;SDS011;5280;42.600;23.556;2022-07-12T01:54:56;1.50;;;1.40;;
10465;SDS011;5280;42.600;23.556;2022-07-12T01:57:25;2.37;;;1.53;;
10465;SDS011;5280;42.600;23.556;2022-07-12T01:59:53;2.43;;;1.60;;
10465;SDS011;5280;42.600;23.556;2022-07-12T02:02:23;3.50;;;1.40;;
10465;SDS011;5280;42.600;23.556;2022-07-12T02:04:52;1.50;;;1.40;;
10465;SDS011;5280;42.600;23.556;2022-07-12T02:07:19;1.77;;;1.30;;
10465;SDS011;5280;42.600;23.556;2022-07-12T02:09:48;2.53;;;1.60;;
10465;SDS011;5280;42.600;23.556;2022-07-12T02:12:15;2.77;;;1.50;;
10465;SDS011;5280;42.600;23.556;2022-07-12T02:14:44;1.67;;;1.40;;
10465;SDS011;5280;42.600;23.556;2022-07-12T02:17:11;1.80;;;1.47;;
10465;SDS011;5280;42.600;23.556;2022-07-12T02:19:38;1.77;;;1.33;;
10465;SDS011;5280;42.600;23.556;2022-07-12T02:22:08;1.60;;;1.50;;
10465;SDS011;5280;42.600;23.556;2022-07-12T02:24:35;1.40;;;1.30;;
10465;SDS011;5280;42.600;23.556;2022-07-12T02:27:02;1.33;;;1.27;;
10465;SDS011;5280;42.600;23.556;2022-07-12T02:29:30;1.43;;;1.33;;
10465;SDS011;5280;42.600;23.556;2022-07-12T02:31:58;2.53;;;1.60;;
10465;SDS011;5280;42.600;23.556;2022-07-12T02:34:26;3.67;;;1.40;;
10465;SDS011;5280;42.600;23.556;2022-07-12T02:36:54;2.63;;;1.50;;
10465;SDS011;5280;42.600;23.556;2022-07-12T02:39:21;1.30;;;1.20;;
10465;SDS011;5280;42.600;23.556;2022-07-12T02:41:48;2.23;;;1.20;;
10465;SDS011;5280;42.600;23.556;2022-07-12T02:44:15;1.53;;;1.30;;
10465;SDS011;5280;42.600;23.556;2022-07-12T02:46:42;1.77;;;1.67;;
10465;SDS011;5280;42.600;23.556;2022-07-12T02:49:11;1.70;;;1.60;;
10465;SDS011;5280;42.600;23.556;2022-07-12T02:51:39;2.90;;;1.67;;
10465;SDS011;5280;42.600;23.556;2022-07-12T02:54:06;2.30;;;2.10;;
10465;SDS011;5280;42.600;23.556;2022-07-12T02:56:33;2.47;;;2.10;;
10465;SDS011;5280;42.600;23.556;2022-07-12T02:59:01;2.40;;;2.30;;
10465;SDS011;5280;42.600;23.556;2022-07-12T03:01:28;2.80;;;2.60;;
10465;SDS011;5280;42.600;23.556;2022-07-12T03:03:55;2.67;;;2.47;;
10465;SDS011;5280;42.600;23.556;2022-07-12T03:06:24;2.33;;;2.23;;
10465;SDS011;5280;42.600;23.556;2022-07-12T03:08:51;2.83;;;2.60;;
10465;SDS011;5280;42.600;23.556;2022-07-12T03:11:18;3.03;;;2.30;;
10465;SDS011;5280;42.600;23.556;2022-07-12T03:13:45;2.93;;;2.50;;
10465;SDS011;5280;42.600;23.556;2022-07-12T03:16:13;2.90;;;2.70;;
10465;SDS011;5280;42.600;23.556;2022-07-12T03:18:40;2.80;;;2.60;;
10465;SDS011;5280;42.600;23.556;2022-07-12T03:21:09;2.50;;;2.30;;
10465;SDS011;5280;42.600;23.556;2022-07-12T03:23:37;2.97;;;2.77;;
10465;SDS011;5280;42.600;23.556;2022-07-12T03:26:06;2.83;;;2.63;;
10465;SDS011;5280;42.600;23.556;2022-07-12T03:28:34;7.03;;;2.83;;
10465;SDS011;5280;42.600;23.556;2022-07-12T03:31:01;4.73;;;2.70;;
10465;SDS011;5280;42.600;23.556;2022-07-12T03:33:28;5.93;;;2.70;;
10465;SDS011;5280;42.600;23.556;2022-07-12T03:35:55;3.40;;;2.80;;
10465;SDS011;5280;42.600;23.556;2022-07-12T03:38:23;4.27;;;3.10;;
10465;SDS011;5280;42.600;23.556;2022-07-12T03:40:57;2.90;;;2.70;;
10465;SDS011;5280;42.600;23.556;2022-07-12T03:43:24;4.07;;;2.70;;
10465;SDS011;5280;42.600;23.556;2022-07-12T03:45:51;2.60;;;2.40;;
10465;SDS011;5280;42.600;23.556;2022-07-12T03:48:18;3.13;;;2.33;;
10465;SDS011;5280;42.600;23.556;2022-07-12T03:50:45;2.97;;;2.77;;
10465;SDS011;5280;42.600;23.556;2022-07-12T03:53:13;5.43;;;3.20;;
10465;SDS011;5280;42.600;23.556;2022-07-12T03:55:46;2.30;;;2.17;;
10465;SDS011;5280;42.600;23.556;2022-07-12T03:58:15;2.77;;;2.57;;
10465;SDS011;5280;42.600;23.556;2022-07-12T04:00:42;3.20;;;2.60;;
10465;SDS011;5280;42.600;23.556;2022-07-12T04:03:09;3.00;;;2.80;;
10465;SDS011;5280;42.600;23.556;2022-07-12T04:05:37;5.77;;;2.77;;
10465;SDS011;5280;42.600;23.556;2022-07-12T04:08:05;7.63;;;2.93;;
10465;SDS011;5280;42.600;23.556;2022-07-12T04:10:32;3.00;;;2.70;;
10465;SDS011;5280;42.600;23.556;2022-07-12T04:12:59;3.03;;;2.53;;
10465;SDS011;5280;42.600;23.556;2022-07-12T04:15:28;3.57;;;2.50;;
10465;SDS011;5280;42.600;23.556;2022-07-12T04:17:55;2.80;;;2.50;;
10465;SDS011;5280;42.600;23.556;2022-07-12T04:20:23;3.03;;;2.63;;
10465;SDS011;5280;42.600;23.556;2022-07-12T04:22:50;2.50;;;2.30;;
10465;SDS011;5280;42.600;23.556;2022-07-12T04:25:17;2.70;;;2.50;;
10465;SDS011;5280;42.600;23.556;2022-07-12T04:27:44;2.73;;;2.50;;
10465;SDS011;5280;42.600;23.556;2022-07-12T04:30:11;4.27;;;2.60;;
10465;SDS011;5280;42.600;23.556;2022-07-12T04:32:40;2.57;;;2.37;;
10465;SDS011;5280;42.600;23.556;2022-07-12T04:35:10;3.60;;;2.40;;
10465;SDS011;5280;42.600;23.556;2022-07-12T04:37:37;2.67;;;2.30;;
10465;SDS011;5280;42.600;23.556;2022-07-12T04:40:05;2.97;;;2.30;;
10465;SDS011;5280;42.600;23.556;2022-07-12T04:42:33;2.97;;;2.40;;
10465;SDS011;5280;42.600;23.556;2022-07-12T04:45:00;2.50;;;2.30;;
10465;SDS011;5280;42.600;23.556;2022-07-12T04:47:27;3.60;;;2.10;;
10465;SDS011;5280;42.600;23.556;2022-07-12T04:49:57;2.83;;;2.40;;
10465;SDS011;5280;42.600;23.556;2022-07-12T04:52:25;2.57;;;2.37;;
10465;SDS011;5280;42.600;23.556;2022-07-12T04:54:52;2.17;;;2.07;;
10465;SDS011;5280;42.600;23.556;2022-07-12T04:57:19;4.53;;;2.00;;
10465;SDS011;5280;42.600;23.556;2022-07-12T04:59:46;6.10;;;2.60;;
10465;SDS011;5280;42.600;23.556;2022-07-12T05:02:13;3.00;;;1.80;;
10465;SDS011;5280;42.600;23.556;2022-07-12T05:04:41;2.00;;;1.90;;
10465;SDS011;5280;42.600;23.556;2022-07-12T05:07:09;3.23;;;2.20;;
10465;SDS011;5280;42.600;23.556;2022-07-12T05:09:36;2.20;;;2.00;;
10465;SDS011;5280;42.600;23.556;2022-07-12T05:12:04;3.63;;;2.40;;
10465;SDS011;5280;42.600;23.556;2022-07-12T05:14:32;2.40;;;2.20;;
10465;SDS011;5280;42.600;23.556;2022-07-12T05:16:59;3.20;;;2.40;;
10465;SDS011;5280;42.600;23.556;2022-07-12T05:19:26;2.83;;;2.53;;
10465;SDS011;5280;42.600;23.556;2022-07-12T05:21:53;2.30;;;2.20;;
10465;SDS011;5280;42.600;23.556;2022-07-12T05:24:21;3.33;;;2.20;;
10465;SDS011;5280;42.600;23.556;2022-07-12T05:26:49;3.97;;;2.63;;
10465;SDS011;5280;42.600;23.556;2022-07-12T05:29:15;3.90;;;2.60;;
10465;SDS011;5280;42.600;23.556;2022-07-12T05:31:42;3.07;;;2.17;;
10465;SDS011;5280;42.600;23.556;2022-07-12T05:34:10;2.83;;;2.53;;
10465;SDS011;5280;42.600;23.556;2022-07-12T05:36:37;3.13;;;2.53;;
10465;SDS011;5280;42.600;23.556;2022-07-12T05:39:03;2.50;;;2.33;;
10465;SDS011;5280;42.600;23.556;2022-07-12T05:41:32;2.70;;;2.57;;
10465;SDS011;5280;42.600;23.556;2022-07-12T05:44:02;2.87;;;2.67;;
10465;SDS011;5280;42.600;23.556;2022-07-12T05:46:30;3.77;;;2.80;;
10465;SDS011;5280;42.600;23.556;2022-07-12T05:48:57;2.70;;;2.50;;
10465;SDS011;5280;42.600;23.556;2022-07-12T05:51:24;3.57;;;3.00;;
10465;SDS011;5280;42.600;23.556;2022-07-12T05:54:08;2.40;;;2.20;;
10465;SDS011;5280;42.600;23.556;2022-07-12T05:56:37;3.13;;;2.43;;
10465;SDS011;5280;42.600;23.556;2022-07-12T05:59:07;2.53;;;2.30;;
10465;SDS011;5280;42.600;23.556;2022-07-12T06:01:34;3.43;;;2.27;;
10465;SDS011;5280;42.600;23.556;2022-07-12T06:04:01;3.30;;;2.10;;
10465;SDS011;5280;42.600;23.556;2022-07-12T06:06:31;2.60;;;2.00;;
10465;SDS011;5280;42.600;23.556;2022-07-12T06:08:58;3.23;;;2.10;;
10465;SDS011;5280;42.600;23.556;2022-07-12T06:11:25;3.43;;;2.10;;
10465;SDS011;5280;42.600;23.556;2022-07-12T06:13:56;2.13;;;1.97;;
10465;SDS011;5280;42.600;23.556;2022-07-12T06:16:23;2.13;;;1.93;;
10465;SDS011;5280;42.600;23.556;2022-07-12T06:18:49;2.27;;;1.50;;
10465;SDS011;5280;42.600;23.556;2022-07-12T06:21:17;3.80;;;1.90;;
10465;SDS011;5280;42.600;23.556;2022-07-12T06:23:44;3.50;;;1.97;;
10465;SDS011;5280;42.600;23.556;2022-07-12T06:26:11;2.90;;;1.73;;
10465;SDS011;5280;42.600;23.556;2022-07-12T06:28:38;3.20;;;2.20;;
10465;SDS011;5280;42.600;23.556;2022-07-12T06:31:07;2.03;;;1.83;;
10465;SDS011;5280;42.600;23.556;2022-07-12T06:33:34;20.00;;;2.30;;
10465;SDS011;5280;42.600;23.556;2022-07-12T06:36:04;1.97;;;1.70;;
10465;SDS011;5280;42.600;23.556;2022-07-12T06:38:31;3.80;;;2.03;;
10465;SDS011;5280;42.600;23.556;2022-07-12T06:40:58;8.13;;;2.40;;
10465;SDS011;5280;42.600;23.556;2022-07-12T06:43:25;4.40;;;2.10;;
10465;SDS011;5280;42.600;23.556;2022-07-12T06:45:52;4.97;;;1.83;;
10465;SDS011;5280;42.600;23.556;2022-07-12T06:48:20;3.77;;;1.90;;
10465;SDS011;5280;42.600;23.556;2022-07-12T06:50:47;2.57;;;1.87;;
10465;SDS011;5280;42.600;23.556;2022-07-12T06:53:14;4.20;;;2.10;;
10465;SDS011;5280;42.600;23.556;2022-07-12T06:55:42;4.70;;;1.87;;
10465;SDS011;5280;42.600;23.556;2022-07-12T06:58:09;1.83;;;1.70;;
10465;SDS011;5280;42.600;23.556;2022-07-12T07:00:37;7.60;;;2.33;;
10465;SDS011;5280;42.600;23.556;2022-07-12T07:03:05;2.93;;;2.17;;
10465;SDS011;5280;42.600;23.556;2022-07-12T07:05:33;2.70;;;1.83;;
10465;SDS011;5280;42.600;23.556;2022-07-12T07:08:01;3.30;;;2.20;;
10465;SDS011;5280;42.600;23.556;2022-07-12T07:10:29;3.07;;;1.97;;
10465;SDS011;5280;42.600;23.556;2022-07-12T07:12:56;3.73;;;2.13;;
10465;SDS011;5280;42.600;23.556;2022-07-12T07:15:22;3.73;;;2.40;;
10465;SDS011;5280;42.600;23.556;2022-07-12T07:17:50;4.63;;;2.50;;
10465;SDS011;5280;42.600;23.556;2022-07-12T07:20:20;4.30;;;2.23;;
10465;SDS011;5280;42.600;23.556;2022-07-12T07:22:48;4.23;;;2.47;;
10465;SDS011;5280;42.600;23.556;2022-07-12T07:25:17;5.97;;;2.77;;
10465;SDS011;5280;42.600;23.556;2022-07-12T07:27:45;7.93;;;2.83;;
10465;SDS011;5280;42.600;23.556;2022-07-12T07:30:11;3.27;;;2.10;;
10465;SDS011;5280;42.600;23.556;2022-07-12T07:32:56;3.93;;;1.90;;
10465;SDS011;5280;42.600;23.556;2022-07-12T07:35:23;3.47;;;2.07;;
10465;SDS011;5280;42.600;23.556;2022-07-12T07:37:52;4.40;;;2.10;;
10465;SDS011;5280;42.600;23.556;2022-07-12T07:40:19;5.90;;;1.93;;
10465;SDS011;5280;42.600;23.556;2022-07-12T07:42:46;7.53;;;2.10;;
10465;SDS011;5280;42.600;23.556;2022-07-12T07:45:13;6.27;;;2.13;;
10465;SDS011;5280;42.600;23.556;2022-07-12T07:47:43;10.93;;;2.67;;
10465;SDS011;5280;42.600;23.556;2022-07-12T07:50:11;2.90;;;2.07;;
10465;SDS011;5280;42.600;23.556;2022-07-12T07:52:38;3.87;;;1.53;;
10465;SDS011;5280;42.600;23.556;2022-07-12T07:55:07;4.03;;;2.30;;
10465;SDS011;5280;42.600;23.556;2022-07-12T07:57:34;2.13;;;1.90;;
10465;SDS011;5280;42.600;23.556;2022-07-12T08:00:01;2.63;;;1.80;;
10465;SDS011;5280;42.600;23.556;2022-07-12T08:02:29;4.37;;;2.10;;
10465;SDS011;5280;42.600;23.556;2022-07-12T08:04:56;7.67;;;1.70;;
10465;SDS011;5280;42.600;23.556;2022-07-12T08:07:23;4.53;;;1.40;;
10465;SDS011;5280;42.600;23.556;2022-07-12T08:09:50;7.83;;;2.03;;
10465;SDS011;5280;42.600;23.556;2022-07-12T08:12:18;3.57;;;1.80;;
10465;SDS011;5280;42.600;23.556;2022-07-12T08:14:45;3.27;;;1.33;;
10465;SDS011;5280;42.600;23.556;2022-07-12T08:17:12;3.43;;;1.17;;
10465;SDS011;5280;42.600;23.556;2022-07-12T08:19:39;2.60;;;1.90;;
10465;SDS011;5280;42.600;23.556;2022-07-12T08:22:06;5.20;;;1.50;;
10465;SDS011;5280;42.600;23.556;2022-07-12T08:24:35;4.87;;;1.40;;
10465;SDS011;5280;42.600;23.556;2022-07-12T08:27:02;16.67;;;2.57;;
10465;SDS011;5280;42.600;23.556;2022-07-12T08:29:31;2.33;;;0.90;;
10465;SDS011;5280;42.600;23.556;2022-07-12T08:32:00;2.50;;;1.17;;
10465;SDS011;5280;42.600;23.556;2022-07-12T08:34:27;2.00;;;0.90;;
10465;SDS011;5280;42.600;23.556;2022-07-12T08:36:54;4.00;;;1.00;;
10465;SDS011;5280;42.600;23.556;2022-07-12T08:39:21;16.30;;;2.40;;
10465;SDS011;5280;42.600;23.556;2022-07-12T08:41:48;1.50;;;1.37;;
10465;SDS011;5280;42.600;23.556;2022-07-12T08:44:15;1.23;;;1.10;;
10465;SDS011;5280;42.600;23.556;2022-07-12T08:46:44;3.40;;;1.00;;
10465;SDS011;5280;42.600;23.556;2022-07-12T08:49:14;3.50;;;1.00;;
10465;SDS011;5280;42.600;23.556;2022-07-12T08:51:43;2.40;;;0.80;;
10465;SDS011;5280;42.600;23.556;2022-07-12T08:54:10;2.97;;;0.90;;
10465;SDS011;5280;42.600;23.556;2022-07-12T08:56:41;1.67;;;1.27;;
10465;SDS011;5280;42.600;23.556;2022-07-12T08:59:09;3.23;;;1.30;;
10465;SDS011;5280;42.600;23.556;2022-07-12T09:01:41;2.03;;;1.07;;
10465;SDS011;5280;42.600;23.556;2022-07-12T09:04:13;1.53;;;1.00;;
10465;SDS011;5280;42.600;23.556;2022-07-12T09:06:40;2.30;;;1.17;;
10465;SDS011;5280;42.600;23.556;2022-07-12T09:09:07;1.63;;;1.40;;
10465;SDS011;5280;42.600;23.556;2022-07-12T09:11:37;2.03;;;1.20;;
10465;SDS011;5280;42.600;23.556;2022-07-12T09:14:05;2.27;;;1.30;;
10465;SDS011;5280;42.600;23.556;2022-07-12T09:16:33;1.67;;;1.27;;
10465;SDS011;5280;42.600;23.556;2022-07-12T09:19:17;2.23;;;1.03;;
10465;SDS011;5280;42.600;23.556;2022-07-12T09:21:49;1.97;;;1.27;;
10465;SDS011;5280;42.600;23.556;2022-07-12T09:24:17;6.00;;;1.27;;
10465;SDS011;5280;42.600;23.556;2022-07-12T09:26:45;3.20;;;1.10;;
10465;SDS011;5280;42.600;23.556;2022-07-12T09:29:12;3.70;;;1.10;;
10465;SDS011;5280;42.600;23.556;2022-07-12T09:31:41;1.50;;;1.40;;
10465;SDS011;5280;42.600;23.556;2022-07-12T09:34:24;3.10;;;1.43;;
10465;SDS011;5280;42.600;23.556;2022-07-12T09:37:09;2.53;;;1.10;;
10465;SDS011;5280;42.600;23.556;2022-07-12T09:39:36;2.77;;;1.77;;
10465;SDS011;5280;42.600;23.556;2022-07-12T09:42:05;7.93;;;1.17;;
10465;SDS011;5280;42.600;23.556;2022-07-12T09:44:34;1.33;;;1.10;;
10465;SDS011;5280;42.600;23.556;2022-07-12T09:47:02;5.50;;;0.90;;
10465;SDS011;5280;42.600;23.556;2022-07-12T09:49:30;2.57;;;1.17;;
10465;SDS011;5280;42.600;23.556;2022-07-12T09:51:59;2.40;;;1.20;;
10465;SDS011;5280;42.600;23.556;2022-07-12T09:54:28;3.27;;;1.00;;
10465;SDS011;5280;42.600;23.556;2022-07-12T09:56:58;2.03;;;0.90;;
10465;SDS011;5280;42.600;23.556;2022-07-12T09:59:29;2.37;;;1.30;;
10465;SDS011;5280;42.600;23.556;2022-07-12T10:02:00;21.77;;;3.13;;
10465;SDS011;5280;42.600;23.556;2022-07-12T10:04:32;2.87;;;1.20;;
10465;SDS011;5280;42.600;23.556;2022-07-12T10:07:02;2.23;;;1.53;;
10465;SDS011;5280;42.600;23.556;2022-07-12T10:09:30;1.10;;;1.00;;
10465;SDS011;5280;42.600;23.556;2022-07-12T10:11:57;1.03;;;1.00;;
10465;SDS011;5280;42.600;23.556;2022-07-12T10:14:24;1.60;;;1.00;;
10465;SDS011;5280;42.600;23.556;2022-07-12T10:16:52;3.43;;;1.20;;
10465;SDS011;5280;42.600;23.556;2022-07-12T10:19:26;2.07;;;1.10;;
10465;SDS011;5280;42.600;23.556;2022-07-12T10:21:57;8.87;;;1.53;;
10465;SDS011;5280;42.600;23.556;2022-07-12T10:27:27;1.43;;;1.00;;
10465;SDS011;5280;42.600;23.556;2022-07-12T10:30:11;1.20;;;1.00;;
10465;SDS011;5280;42.600;23.556;2022-07-12T10:32:42;1.83;;;1.10;;
10465;SDS011;5280;42.600;23.556;2022-07-12T10:35:13;3.73;;;1.10;;
10465;SDS011;5280;42.600;23.556;2022-07-12T10:38:13;2.77;;;1.17;;
10465;SDS011;5280;42.600;23.556;2022-07-12T10:40:41;1.43;;;0.80;;
10465;SDS011;5280;42.600;23.556;2022-07-12T10:43:20;1.20;;;1.10;;
10465;SDS011;5280;42.600;23.556;2022-07-12T10:46:04;2.87;;;0.93;;
10465;SDS011;5280;42.600;23.556;2022-07-12T10:48:40;1.50;;;1.03;;
10465;SDS011;5280;42.600;23.556;2022-07-12T10:51:14;2.17;;;0.90;;
10465;SDS011;5280;42.600;23.556;2022-07-12T10:53:46;0.80;;;0.80;;
10465;SDS011;5280;42.600;23.556;2022-07-12T10:56:16;0.60;;;0.60;;
10465;SDS011;5280;42.600;23.556;2022-07-12T10:58:45;1.63;;;1.00;;
10465;SDS011;5280;42.600;23.556;2022-07-12T11:01:13;1.80;;;0.80;;
10465;SDS011;5280;42.600;23.556;2022-07-12T11:03:42;2.43;;;0.90;;
10465;SDS011;5280;42.600;23.556;2022-07-12T11:06:13;3.10;;;1.10;;
10465;SDS011;5280;42.600;23.556;2022-07-12T11:08:53;1.43;;;0.70;;
10465;SDS011;5280;42.600;23.556;2022-07-12T11:11:22;1.00;;;0.70;;
10465;SDS011;5280;42.600;23.556;2022-07-12T11:13:51;2.30;;;0.93;;
10465;SDS011;5280;42.600;23.556;2022-07-12T11:16:19;1.57;;;1.10;;
10465;SDS011;5280;42.600;23.556;2022-07-12T11:18:49;2.43;;;1.00;;
10465;SDS011;5280;42.600;23.556;2022-07-12T11:21:23;0.97;;;0.90;;
10465;SDS011;5280;42.600;23.556;2022-07-12T11:23:56;0.90;;;0.90;;
10465;SDS011;5280;42.600;23.556;2022-07-12T11:26:24;2.33;;;0.80;;
10465;SDS011;5280;42.600;23.556;2022-07-12T11:28:55;1.60;;;0.80;;
10465;SDS011;5280;42.600;23.556;2022-07-12T11:31:26;1.90;;;0.73;;
10465;SDS011;5280;42.600;23.556;2022-07-12T11:33:54;3.37;;;1.00;;
10465;SDS011;5280;42.600;23.556;2022-07-12T11:36:24;0.87;;;0.80;;
10465;SDS011;5280;42.600;23.556;2022-07-12T11:38:52;1.47;;;0.70;;
10465;SDS011;5280;42.600;23.556;2022-07-12T11:41:21;0.80;;;0.80;;
10465;SDS011;5280;42.600;23.556;2022-07-12T11:43:49;1.73;;;0.80;;
10465;SDS011;5280;42.600;23.556;2022-07-12T11:46:17;0.73;;;0.73;;
10465;SDS011;5280;42.600;23.556;2022-07-12T11:48:44;4.43;;;0.90;;
10465;SDS011;5280;42.600;23.556;2022-07-12T11:51:12;3.37;;;0.90;;
10465;SDS011;5280;42.600;23.556;2022-07-12T11:53:39;1.47;;;1.00;;
10465;SDS011;5280;42.600;23.556;2022-07-12T11:56:08;1.57;;;0.90;;
10465;SDS011;5280;42.600;23.556;2022-07-12T11:58:37;3.10;;;0.90;;
10465;SDS011;5280;42.600;23.556;2022-07-12T12:01:04;1.20;;;0.87;;
10465;SDS011;5280;42.600;23.556;2022-07-12T12:03:41;1.90;;;1.20;;
10465;SDS011;5280;42.600;23.556;2022-07-12T12:06:09;1.20;;;1.00;;
10465;SDS011;5280;42.600;23.556;2022-07-12T12:08:36;1.00;;;0.90;;
10465;SDS011;5280;42.600;23.556;2022-07-12T12:11:03;5.13;;;0.80;;
10465;SDS011;5280;42.600;23.556;2022-07-12T12:13:30;1.50;;;1.00;;
10465;SDS011;5280;42.600;23.556;2022-07-12T12:15:59;2.67;;;1.00;;
10465;SDS011;5280;42.600;23.556;2022-07-12T12:18:30;2.57;;;0.90;;
10465;SDS011;5280;42.600;23.556;2022-07-12T12:21:00;3.33;;;0.80;;
10465;SDS011;5280;42.600;23.556;2022-07-12T12:23:28;1.00;;;1.00;;
10465;SDS011;5280;42.600;23.556;2022-07-12T12:26:11;1.10;;;0.87;;
10465;SDS011;5280;42.600;23.556;2022-07-12T12:28:40;0.83;;;0.70;;
10465;SDS011;5280;42.600;23.556;2022-07-12T12:31:09;0.80;;;0.80;;
10465;SDS011;5280;42.600;23.556;2022-07-12T12:33:39;1.47;;;0.90;;
10465;SDS011;5280;42.600;23.556;2022-07-12T12:38:55;1.10;;;0.97;;
10465;SDS011;5280;42.600;23.556;2022-07-12T12:41:24;3.90;;;1.10;;
10465;SDS011;5280;42.600;23.556;2022-07-12T12:43:58;4.63;;;1.10;;
10465;SDS011;5280;42.600;23.556;2022-07-12T12:46:48;3.40;;;1.00;;
10465;SDS011;5280;42.600;23.556;2022-07-12T12:49:18;1.10;;;1.03;;
10465;SDS011;5280;42.600;23.556;2022-07-12T12:51:52;3.27;;;1.03;;
10465;SDS011;5280;42.600;23.556;2022-07-12T12:54:33;0.87;;;0.80;;
10465;SDS011;5280;42.600;23.556;2022-07-12T12:57:01;3.13;;;0.80;;
10465;SDS011;5280;42.600;23.556;2022-07-12T12:59:29;1.63;;;0.90;;
10465;SDS011;5280;42.600;23.556;2022-07-12T13:01:58;0.90;;;0.90;;
10465;SDS011;5280;42.600;23.556;2022-07-12T13:04:27;2.13;;;1.00;;
10465;SDS011;5280;42.600;23.556;2022-07-12T13:06:55;1.87;;;0.90;;
10465;SDS011;5280;42.600;23.556;2022-07-12T13:09:23;0.93;;;0.93;;
10465;SDS011;5280;42.600;23.556;2022-07-12T13:11:50;1.53;;;1.00;;
10465;SDS011;5280;42.600;23.556;2022-07-12T13:14:17;2.83;;;0.87;;
10465;SDS011;5280;42.600;23.556;2022-07-12T13:16:44;0.80;;;0.80;;
10465;SDS011;5280;42.600;23.556;2022-07-12T13:19:13;1.60;;;0.90;;
10465;SDS011;5280;42.600;23.556;2022-07-12T13:21:40;1.37;;;0.90;;
10465;SDS011;5280;42.600;23.556;2022-07-12T13:24:07;1.53;;;0.70;;
10465;SDS011;5280;42.600;23.556;2022-07-12T13:26:34;2.80;;;1.10;;
10465;SDS011;5280;42.600;23.556;2022-07-12T13:29:02;3.33;;;0.80;;
10465;SDS011;5280;42.600;23.556;2022-07-12T13:31:29;1.33;;;0.90;;
10465;SDS011;5280;42.600;23.556;2022-07-12T13:33:56;1.23;;;0.80;;
10465;SDS011;5280;42.600;23.556;2022-07-12T13:36:24;0.80;;;0.80;;
10465;SDS011;5280;42.600;23.556;2022-07-12T13:38:55;1.47;;;0.93;;
10465;SDS011;5280;42.600;23.556;2022-07-12T13:41:42;3.40;;;0.90;;
10465;SDS011;5280;42.600;23.556;2022-07-12T13:44:09;2.67;;;0.80;;
10465;SDS011;5280;42.600;23.556;2022-07-12T13:46:36;2.00;;;1.27;;
10465;SDS011;5280;42.600;23.556;2022-07-12T13:49:03;0.80;;;0.80;;
10465;SDS011;5280;42.600;23.556;2022-07-12T13:51:32;0.80;;;0.80;;
10465;SDS011;5280;42.600;23.556;2022-07-12T13:53:59;2.87;;;0.80;;
10465;SDS011;5280;42.600;23.556;2022-07-12T13:56:26;16.53;;;2.03;;
10465;SDS011;5280;42.600;23.556;2022-07-12T13:58:53;2.97;;;1.20;;
10465;SDS011;5280;42.600;23.556;2022-07-12T14:01:21;1.47;;;0.90;;
10465;SDS011;5280;42.600;23.556;2022-07-12T14:03:48;3.17;;;1.17;;
10465;SDS011;5280;42.600;23.556;2022-07-12T14:06:15;2.83;;;1.00;;
10465;SDS011;5280;42.600;23.556;2022-07-12T14:08:44;2.13;;;0.80;;
10465;SDS011;5280;42.600;23.556;2022-07-12T14:11:11;1.33;;;1.10;;
10465;SDS011;5280;42.600;23.556;2022-07-12T14:13:38;2.80;;;1.00;;
10465;SDS011;5280;42.600;23.556;2022-07-12T14:16:05;3.47;;;0.93;;
10465;SDS011;5280;42.600;23.556;2022-07-12T14:18:32;1.53;;;1.00;;
10465;SDS011;5280;42.600;23.556;2022-07-12T14:21:00;1.27;;;1.17;;
10465;SDS011;5280;42.600;23.556;2022-07-12T14:23:27;4.27;;;1.10;;
10465;SDS011;5280;42.600;23.556;2022-07-12T14:25:56;1.13;;;0.93;;
10465;SDS011;5280;42.600;23.556;2022-07-12T14:28:23;1.30;;;1.17;;
10465;SDS011;5280;42.600;23.556;2022-07-12T14:30:50;2.17;;;1.00;;
10465;SDS011;5280;42.600;23.556;2022-07-12T14:33:18;1.93;;;1.00;;
10465;SDS011;5280;42.600;23.556;2022-07-12T14:35:45;1.80;;;1.00;;
10465;SDS011;5280;42.600;23.556;2022-07-12T14:38:14;0.80;;;0.80;;
10465;SDS011;5280;42.600;23.556;2022-07-12T14:40:41;0.80;;;0.80;;
10465;SDS011;5280;42.600;23.556;2022-07-12T14:43:09;1.73;;;1.03;;
10465;SDS011;5280;42.600;23.556;2022-07-12T14:45:36;1.17;;;0.83;;
10465;SDS011;5280;42.600;23.556;2022-07-12T14:48:04;5.63;;;1.20;;
10465;SDS011;5280;42.600;23.556;2022-07-12T14:50:31;1.10;;;0.87;;
10465;SDS011;5280;42.600;23.556;2022-07-12T14:52:58;5.13;;;1.20;;
10465;SDS011;5280;42.600;23.556;2022-07-12T14:55:27;1.57;;;0.80;;
10465;SDS011;5280;42.600;23.556;2022-07-12T14:57:55;2.53;;;0.90;;
10465;SDS011;5280;42.600;23.556;2022-07-12T15:00:24;3.37;;;0.83;;
10465;SDS011;5280;42.600;23.556;2022-07-12T15:02:51;2.43;;;1.10;;